createdAt,value
2023-03-08T00:01:25.944Z,94153.81
2023-03-08T00:03:53.859Z,94160.69
2023-03-08T00:06:20.544Z,94164.72
2023-03-08T00:08:48.671Z,94163.22
2023-03-08T00:11:15.937Z,94166.41
2023-03-08T00:13:42.693Z,94160.91
2023-03-08T00:16:11.072Z,94172.88
2023-03-08T00:18:37.866Z,94167.34
2023-03-08T00:21:06.580Z,94163.66
2023-03-08T00:23:35.597Z,94166.88
2023-03-08T00:26:02.323Z,94164.81
2023-03-08T00:28:29.296Z,94160.09
2023-03-08T00:30:59.789Z,94164.34
2023-03-08T00:33:27.032Z,94163.88
2023-03-08T00:35:59.475Z,94172.13
2023-03-08T00:38:26.558Z,94163.41
2023-03-08T00:40:53.445Z,94156.63
2023-03-08T00:43:23.521Z,94145.03
2023-03-08T00:45:53.165Z,94156.16
2023-03-08T00:48:20.173Z,94146.16
2023-03-08T00:50:49.493Z,94150.41
2023-03-08T00:53:18.252Z,94144.63
2023-03-08T00:55:52.710Z,94150.97
2023-03-08T00:58:19.737Z,94150.47
2023-03-08T01:00:46.544Z,94155.75
2023-03-08T01:03:15.857Z,94155.31
2023-03-08T01:05:43.700Z,94164.84
2023-03-08T01:08:15.087Z,94163.81
2023-03-08T01:10:47.518Z,94159.31
2023-03-08T01:13:14.401Z,94160.13
2023-03-08T01:15:43.697Z,94154.41
2023-03-08T01:18:10.382Z,94152.56
2023-03-08T01:20:40.067Z,94157.59
2023-03-08T01:23:07.890Z,94161.84
2023-03-08T01:25:36.714Z,94161.84
2023-03-08T01:28:05.761Z,94158.16
2023-03-08T01:30:32.387Z,94154.50
2023-03-08T01:33:01.353Z,94158.75
2023-03-08T01:35:30.275Z,94164.03
2023-03-08T01:37:59.516Z,94161.94
2023-03-08T01:40:30.972Z,94174.13
2023-03-08T01:42:57.618Z,94173.88
2023-03-08T01:46:01.740Z,94179.97
2023-03-08T01:48:33.838Z,94168.34
2023-03-08T01:51:03.180Z,94157.78
2023-03-08T01:53:30.387Z,94159.41
2023-03-08T01:55:59.252Z,94160.22
2023-03-08T01:58:28.602Z,94158.34
2023-03-08T02:01:00.653Z,94173.16
2023-03-08T02:03:29.581Z,94170.31
2023-03-08T02:06:01.054Z,94175.59
2023-03-08T02:08:27.834Z,94176.38
2023-03-08T02:10:57.391Z,94158.47
2023-03-08T02:13:26.780Z,94163.16
2023-03-08T02:15:55.140Z,94174.31
2023-03-08T02:18:23.995Z,94155.56
2023-03-08T02:20:52.849Z,94154.78
2023-03-08T02:23:26.809Z,94162.72
2023-03-08T02:25:54.369Z,94178.56
2023-03-08T02:28:25.051Z,94179.13
2023-03-08T02:30:54.380Z,94162.44
2023-03-08T02:33:23.374Z,94162.44
2023-03-08T02:35:50.253Z,94175.66
2023-03-08T02:38:17.926Z,94178.31
2023-03-08T02:40:44.670Z,94189.69
2023-03-08T02:43:16.321Z,94176.72
2023-03-08T02:45:45.464Z,94193.38
2023-03-08T02:48:12.222Z,94194.41
2023-03-08T02:50:38.960Z,94173.28
2023-03-08T02:53:05.771Z,94182.81
2023-03-08T02:55:38.624Z,94201.31
2023-03-08T02:58:07.902Z,94188.09
2023-03-08T03:00:34.655Z,94181.22
2023-03-08T03:03:04.215Z,94200.25
2023-03-08T03:05:30.862Z,94187.28
2023-03-08T03:07:59.907Z,94206.59
2023-03-08T03:10:29.042Z,94207.63
2023-03-08T03:12:55.672Z,94179.13
2023-03-08T03:15:26.943Z,94220.59
2023-03-08T03:17:53.404Z,94213.47
2023-03-08T03:20:20.120Z,94186.00
2023-03-08T03:22:49.204Z,94214.25
2023-03-08T03:25:19.043Z,94208.19
2023-03-08T03:27:45.680Z,94190.75
2023-03-08T03:30:12.721Z,94205.78
2023-03-08T03:32:39.581Z,94210.28
2023-03-08T03:35:06.733Z,94195.47
2023-03-08T03:37:35.072Z,94228.78
2023-03-08T03:40:01.798Z,94223.47
2023-03-08T03:42:28.606Z,94219.00
2023-03-08T03:44:55.309Z,94234.84
2023-03-08T03:47:22.077Z,94223.47
2023-03-08T03:49:48.846Z,94231.41
2023-03-08T03:52:15.568Z,94213.69
2023-03-08T03:54:44.563Z,94221.88
2023-03-08T03:57:13.588Z,94244.63
2023-03-08T03:59:42.791Z,94223.47
2023-03-08T04:02:09.600Z,94216.59
2023-03-08T04:04:36.369Z,94233.25
2023-03-08T04:07:03.015Z,94233.25
2023-03-08T04:09:29.768Z,94232.44
2023-03-08T04:12:05.202Z,94227.16
2023-03-08T04:14:34.227Z,94237.75
2023-03-08T04:17:01.059Z,94235.09
2023-03-08T04:19:27.863Z,94237.75
2023-03-08T04:21:54.701Z,94245.88
2023-03-08T04:24:21.446Z,94236.09
2023-03-08T04:26:50.253Z,94239.56
2023-03-08T04:29:19.153Z,94247.72
2023-03-08T04:31:48.329Z,94246.94
2023-03-08T04:34:15.035Z,94234.50
2023-03-08T04:36:47.144Z,94242.44
2023-03-08T04:39:15.988Z,94239.78
2023-03-08T04:41:42.785Z,94234.50
2023-03-08T04:44:09.454Z,94234.50
2023-03-08T04:46:37.083Z,94235.31
2023-03-08T04:49:06.140Z,94234.50
2023-03-08T04:51:32.863Z,94236.59
2023-03-08T04:54:04.274Z,94236.34
2023-03-08T04:56:33.173Z,94238.19
2023-03-08T04:59:00.784Z,94232.91
2023-03-08T05:01:32.218Z,94243.16
2023-03-08T05:03:58.943Z,94247.16
2023-03-08T05:06:26.831Z,94253.47
2023-03-08T05:08:56.680Z,94260.34
2023-03-08T05:11:25.299Z,94256.94
2023-03-08T05:13:53.561Z,94257.72
2023-03-08T05:16:22.535Z,94263.00
2023-03-08T05:18:49.905Z,94270.72
2023-03-08T05:21:18.174Z,94275.19
2023-03-08T05:23:47.968Z,94268.28
2023-03-08T05:26:19.060Z,94278.84
2023-03-08T05:28:46.040Z,94284.16
2023-03-08T05:31:16.839Z,94292.06
2023-03-08T05:33:44.370Z,94297.34
2023-03-08T05:36:14.231Z,94298.38
2023-03-08T05:38:43.847Z,94295.75
2023-03-08T05:41:14.952Z,94300.81
2023-03-08T05:43:41.746Z,94306.31
2023-03-08T05:46:11.198Z,94306.88
2023-03-08T05:48:37.948Z,94305.28
2023-03-08T05:51:17.367Z,94306.88
2023-03-08T05:53:44.179Z,94310.38
2023-03-08T05:56:15.104Z,94315.44
2023-03-08T05:58:47.741Z,94327.03
2023-03-08T06:01:24.550Z,94330.31
2023-03-08T06:06:39.606Z,94325.16
2023-03-08T06:09:10.759Z,94335.00
2023-03-08T06:11:39.655Z,94343.63
2023-03-08T06:14:08.553Z,94340.09
2023-03-08T06:16:39.982Z,94333.72
2023-03-08T06:19:09.223Z,94341.28
2023-03-08T06:21:36.000Z,94350.09
2023-03-08T06:24:04.794Z,94355.28
2023-03-08T06:26:33.620Z,94346.69
2023-03-08T06:29:04.400Z,94363.59
2023-03-08T06:31:33.803Z,94355.88
2023-03-08T06:34:03.710Z,94356.06
2023-03-08T06:36:35.066Z,94359.44
2023-03-08T06:39:03.926Z,94366.31
2023-03-08T06:41:35.302Z,94365.06
2023-03-08T06:44:01.743Z,94356.53
2023-03-08T06:46:30.790Z,94365.78
2023-03-08T06:49:03.212Z,94371.34
2023-03-08T06:51:30.005Z,94376.16
2023-03-08T06:53:56.774Z,94376.47
2023-03-08T06:56:28.079Z,94373.38
2023-03-08T06:58:57.115Z,94389.72
2023-03-08T07:01:25.960Z,94394.91
2023-03-08T07:03:59.950Z,94392.81
2023-03-08T07:06:28.876Z,94396.78
2023-03-08T07:08:57.674Z,94401.63
2023-03-08T07:11:29.593Z,94407.19
2023-03-08T07:13:57.504Z,94413.44
2023-03-08T07:16:26.293Z,94406.28
2023-03-08T07:18:53.231Z,94409.03
2023-03-08T07:21:22.116Z,94402.09
2023-03-08T07:23:53.326Z,94404.66
2023-03-08T07:26:21.311Z,94414.56
2023-03-08T07:28:53.957Z,94410.69
2023-03-08T07:31:20.703Z,94413.25
2023-03-08T07:33:52.081Z,94407.53
2023-03-08T07:36:21.074Z,94404.44
2023-03-08T07:38:49.972Z,94406.63
2023-03-08T07:41:16.708Z,94398.88
2023-03-08T07:43:45.603Z,94400.03
2023-03-08T07:46:14.479Z,94406.47
2023-03-08T07:48:43.363Z,94407.88
2023-03-08T07:51:10.421Z,94409.84
2023-03-08T07:53:37.475Z,94410.78
2023-03-08T07:56:04.639Z,94413.19
2023-03-08T07:58:31.400Z,94409.53
2023-03-08T08:01:00.407Z,94413.09
2023-03-08T08:03:28.706Z,94411.03
2023-03-08T08:05:55.511Z,94412.25
2023-03-08T08:08:24.355Z,94405.72
2023-03-08T08:10:51.122Z,94409.97
2023-03-08T08:13:22.416Z,94413.19
2023-03-08T08:15:59.993Z,94413.53
2023-03-08T08:18:29.252Z,94410.69
2023-03-08T08:21:03.465Z,94413.44
2023-03-08T08:23:30.286Z,94419.31
2023-03-08T08:25:59.621Z,94423.69
2023-03-08T08:28:26.553Z,94419.34
2023-03-08T08:31:05.069Z,94420.13
2023-03-08T08:33:32.234Z,94414.66
2023-03-08T08:36:10.322Z,94415.81
2023-03-08T08:38:40.458Z,94418.94
2023-03-08T08:41:10.325Z,94420.09
2023-03-08T08:43:37.008Z,94415.97
2023-03-08T08:46:06.322Z,94417.72
2023-03-08T08:48:33.372Z,94417.25
2023-03-08T08:51:00.672Z,94414.16
2023-03-08T08:53:27.421Z,94413.13
2023-03-08T08:55:54.243Z,94414.16
2023-03-08T08:58:25.717Z,94410.00
2023-03-08T09:00:52.475Z,94410.00
2023-03-08T09:03:21.307Z,94412.44
2023-03-08T09:05:50.332Z,94416.47
2023-03-08T09:08:19.405Z,94413.56
2023-03-08T09:10:48.364Z,94412.78
2023-03-08T09:13:15.146Z,94416.78
2023-03-08T09:15:44.253Z,94403.84
2023-03-08T09:18:13.142Z,94410.72
2023-03-08T09:20:39.868Z,94408.66
2023-03-08T09:23:06.847Z,94400.72
2023-03-08T09:25:35.824Z,94402.34
2023-03-08T09:28:07.197Z,94397.63
2023-03-08T09:30:33.885Z,94388.09
2023-03-08T09:33:05.832Z,94390.28
2023-03-08T09:35:35.635Z,94388.19
2023-03-08T09:38:07.284Z,94387.75
2023-03-08T09:40:39.174Z,94382.00
2023-03-08T09:43:13.255Z,94386.28
2023-03-08T09:45:42.133Z,94387.97
2023-03-08T09:48:25.732Z,94382.00
2023-03-08T09:50:57.371Z,94383.66
2023-03-08T09:53:54.705Z,94382.16
2023-03-08T09:56:45.282Z,94378.47
2023-03-08T09:59:25.461Z,94373.78
2023-03-08T10:02:00.726Z,94370.09
2023-03-08T10:04:36.466Z,94372.16
2023-03-08T10:07:28.367Z,94367.69
2023-03-08T10:10:13.290Z,94364.47
2023-03-08T10:13:01.500Z,94366.97
2023-03-08T10:15:28.371Z,94364.13
2023-03-08T10:18:04.361Z,94365.72
2023-03-08T10:20:37.779Z,94366.75
2023-03-08T10:23:18.623Z,94360.44
2023-03-08T10:25:48.115Z,94357.81
2023-03-08T10:28:21.546Z,94351.47
2023-03-08T10:30:50.913Z,94359.97
2023-03-08T10:33:19.358Z,94359.97
2023-03-08T10:36:00.141Z,94354.94
2023-03-08T10:38:32.081Z,94346.75
2023-03-08T10:41:02.481Z,94351.00
2023-03-08T10:43:35.866Z,94348.84
2023-03-08T10:46:11.329Z,94337.50
2023-03-08T10:48:40.284Z,94335.63
2023-03-08T10:51:15.503Z,94334.84
2023-03-08T10:53:55.056Z,94328.53
2023-03-08T10:56:38.496Z,94321.38
2023-03-08T10:59:06.581Z,94328.53
2023-03-08T11:01:48.660Z,94325.06
2023-03-08T11:04:16.844Z,94330.13
2023-03-08T11:06:43.547Z,94318.19
2023-03-08T11:09:37.101Z,94314.97
2023-03-08T11:12:08.399Z,94311.72
2023-03-08T11:14:35.603Z,94308.03
2023-03-08T11:17:23.708Z,94302.75
2023-03-08T11:20:00.158Z,94297.94
2023-03-08T11:22:39.924Z,94292.66
2023-03-08T11:25:09.522Z,94297.38
2023-03-08T11:27:51.512Z,94284.19
2023-03-08T11:30:41.149Z,94278.66
2023-03-08T11:33:26.845Z,94263.06
2023-03-08T11:36:05.599Z,94266.69
2023-03-08T11:38:34.711Z,94259.38
2023-03-08T11:41:16.083Z,94254.09
2023-03-08T11:44:01.052Z,94254.09
2023-03-08T11:46:42.885Z,94250.06
2023-03-08T11:49:15.407Z,94246.59
2023-03-08T11:51:51.311Z,94246.38
2023-03-08T11:54:36.551Z,94245.00
2023-03-08T11:57:04.255Z,94245.25
2023-03-08T11:59:44.761Z,94237.31
2023-03-08T12:02:20.547Z,94238.38
2023-03-08T12:05:23.007Z,94228.59
2023-03-08T12:07:56.096Z,94220.91
2023-03-08T12:10:45.019Z,94216.91
2023-03-08T12:13:35.656Z,94227.47
2023-03-08T12:16:20.969Z,94222.19
2023-03-08T12:19:10.610Z,94221.63
2023-03-08T12:21:51.117Z,94220.56
2023-03-08T12:24:43.710Z,94220.56
2023-03-08T12:27:33.521Z,94219.75
2023-03-08T12:30:26.112Z,94214.72
2023-03-08T12:32:54.871Z,94220.22
2023-03-08T12:35:24.604Z,94208.88
2023-03-08T12:38:10.036Z,94215.63
2023-03-08T12:40:45.303Z,94216.69
2023-03-08T12:43:13.100Z,94218.75
2023-03-08T12:45:57.138Z,94213.47
2023-03-08T12:48:25.655Z,94211.06
2023-03-08T12:51:27.651Z,94200.50
2023-03-08T12:54:02.578Z,94203.38
2023-03-08T12:56:50.002Z,94203.38
2023-03-08T12:59:16.815Z,94205.22
2023-03-08T13:01:45.004Z,94201.78
2023-03-08T13:04:38.714Z,94198.56
2023-03-08T13:07:09.990Z,94202.22
2023-03-08T13:09:37.958Z,94192.47
2023-03-08T13:12:16.706Z,94196.94
2023-03-08T13:14:48.158Z,94196.94
2023-03-08T13:17:34.890Z,94196.94
2023-03-08T13:20:21.294Z,94196.94
2023-03-08T13:23:03.174Z,94193.50
2023-03-08T13:25:35.870Z,94191.09
2023-03-08T13:28:06.274Z,94184.00
2023-03-08T13:30:35.308Z,94193.72
2023-03-08T13:33:08.790Z,94195.34
2023-03-08T13:35:35.724Z,94195.81
2023-03-08T13:38:02.501Z,94196.63
2023-03-08T13:40:29.937Z,94195.81
2023-03-08T13:43:05.600Z,94185.25
2023-03-08T13:45:32.285Z,94195.03
2023-03-08T13:48:00.088Z,94183.66
2023-03-08T13:50:32.015Z,94187.31
2023-03-08T13:52:59.421Z,94192.38
2023-03-08T13:55:34.474Z,94178.38
2023-03-08T13:58:03.316Z,94181.56
2023-03-08T14:00:37.368Z,94179.19
2023-03-08T14:03:06.701Z,94181.56
2023-03-08T14:05:42.828Z,94179.19
2023-03-08T14:08:20.373Z,94178.38
2023-03-08T14:10:54.348Z,94176.75
2023-03-08T14:13:27.807Z,94185.25
2023-03-08T14:15:59.352Z,94188.13
2023-03-08T14:18:33.634Z,94179.97
2023-03-08T14:21:19.974Z,94187.88
2023-03-08T14:23:57.375Z,94182.84
2023-03-08T14:26:40.549Z,94178.38
2023-03-08T14:29:23.138Z,94179.63
2023-03-08T14:31:59.929Z,94178.38
2023-03-08T14:34:36.129Z,94180.44
2023-03-08T14:37:11.748Z,94174.34
2023-03-08T14:39:46.237Z,94161.16
2023-03-08T14:42:41.819Z,94175.16
2023-03-08T14:45:26.808Z,94171.47
2023-03-08T14:48:03.953Z,94178.94
2023-03-08T14:50:32.404Z,94186.38
2023-03-08T14:53:02.649Z,94186.38
2023-03-08T14:55:31.499Z,94185.94
2023-03-08T14:58:00.528Z,94191.22
2023-03-08T15:00:30.528Z,94195.22
2023-03-08T15:02:58.187Z,94184.91
2023-03-08T15:05:29.518Z,94188.66
2023-03-08T15:07:59.756Z,94185.00
2023-03-08T15:10:32.247Z,94186.59
2023-03-08T15:13:01.590Z,94192.44
2023-03-08T15:15:30.605Z,94187.75
2023-03-08T15:17:57.349Z,94185.91
2023-03-08T15:20:25.120Z,94192.00
2023-03-08T15:22:54.457Z,94185.69
2023-03-08T15:25:42.354Z,94188.88
2023-03-08T15:28:11.831Z,94195.78
2023-03-08T15:30:38.656Z,94198.41
2023-03-08T15:33:08.010Z,94202.66
2023-03-08T15:35:36.845Z,94208.50
2023-03-08T15:38:03.550Z,94203.22
2023-03-08T15:40:36.432Z,94192.66
2023-03-08T15:43:05.446Z,94200.09
2023-03-08T15:45:34.412Z,94194.25
2023-03-08T15:48:06.374Z,94198.03
2023-03-08T15:50:35.642Z,94199.06
2023-03-08T15:53:04.837Z,94195.38
2023-03-08T15:55:34.793Z,94190.09
2023-03-08T15:58:04.153Z,94183.81
2023-03-08T16:00:30.959Z,94192.53
2023-03-08T16:02:57.739Z,94187.00
2023-03-08T16:05:28.568Z,94192.28
2023-03-08T16:07:59.945Z,94197.56
2023-03-08T16:10:33.136Z,94183.34
2023-03-08T16:13:02.019Z,94181.72
2023-03-08T16:15:28.749Z,94191.25
2023-03-08T16:18:00.371Z,94184.94
2023-03-08T16:20:27.042Z,94193.91
2023-03-08T16:22:54.966Z,94184.94
2023-03-08T16:25:23.199Z,94189.41
2023-03-08T16:27:50.077Z,94197.09
2023-03-08T16:30:21.415Z,94192.63
2023-03-08T16:32:48.220Z,94197.09
2023-03-08T16:35:17.175Z,94202.19
2023-03-08T16:37:44.005Z,94202.38
2023-03-08T16:40:14.413Z,94209.31
2023-03-08T16:42:44.025Z,94209.31
2023-03-08T16:45:11.095Z,94205.63
2023-03-08T16:47:37.774Z,94219.06
2023-03-08T16:50:04.838Z,94221.47
2023-03-08T16:52:33.813Z,94219.88
2023-03-08T16:55:00.622Z,94225.72
2023-03-08T16:57:27.416Z,94228.34
2023-03-08T16:59:56.823Z,94232.84
2023-03-08T17:02:26.001Z,94232.84
2023-03-08T17:04:55.138Z,94228.59
2023-03-08T17:07:21.938Z,94226.16
2023-03-08T17:09:50.666Z,94227.56
2023-03-08T17:12:19.475Z,94231.00
2023-03-08T17:14:48.314Z,94240.53
2023-03-08T17:17:17.510Z,94232.59
2023-03-08T17:19:46.331Z,94242.59
2023-03-08T17:22:13.012Z,94240.53
2023-03-08T17:24:41.910Z,94242.38
2023-03-08T17:27:10.730Z,94245.03
2023-03-08T17:29:40.408Z,94251.09
2023-03-08T17:32:11.832Z,94257.97
2023-03-08T17:34:38.676Z,94263.25
2023-03-08T17:37:11.422Z,94273.84
2023-03-08T17:39:41.609Z,94282.31
2023-03-08T17:42:11.764Z,94291.28
2023-03-08T17:44:40.608Z,94289.69
2023-03-08T17:47:07.388Z,94300.03
2023-03-08T17:49:36.439Z,94312.41
2023-03-08T17:52:03.209Z,94303.47
2023-03-08T17:54:32.032Z,94308.19
2023-03-08T17:57:00.817Z,94316.66
2023-03-08T17:59:29.944Z,94308.75
2023-03-08T18:01:56.675Z,94307.13
2023-03-08T18:04:23.563Z,94310.38
2023-03-08T18:06:52.486Z,94319.31
2023-03-08T18:09:21.266Z,94331.50
2023-03-08T18:11:50.089Z,94328.28
2023-03-08T18:14:16.898Z,94335.16
2023-03-08T18:16:45.076Z,94327.84
2023-03-08T18:19:14.062Z,94332.31
2023-03-08T18:21:41.638Z,94336.78
2023-03-08T18:24:11.362Z,94331.50
2023-03-08T18:26:40.296Z,94335.97
2023-03-08T18:29:11.772Z,94335.16
2023-03-08T18:31:43.158Z,94339.44
2023-03-08T18:34:10.125Z,94332.31
2023-03-08T18:36:40.211Z,94333.13
2023-03-08T18:39:10.182Z,94326.22
2023-03-08T18:41:38.936Z,94325.19
2023-03-08T18:44:07.982Z,94321.72
2023-03-08T18:46:39.554Z,94327.84
2023-03-08T18:49:12.244Z,94327.84
2023-03-08T18:51:44.190Z,94337.59
2023-03-08T18:54:13.547Z,94334.72
2023-03-08T18:56:42.818Z,94329.44
2023-03-08T18:59:12.458Z,94331.50
2023-03-08T19:01:41.273Z,94338.41
2023-03-08T19:04:10.159Z,94338.41
2023-03-08T19:06:41.596Z,94337.59
2023-03-08T19:09:12.606Z,94334.72
2023-03-08T19:11:39.281Z,94340.00
2023-03-08T19:14:08.401Z,94336.78
2023-03-08T19:16:35.885Z,94339.19
2023-03-08T19:19:09.316Z,94343.69
2023-03-08T19:21:44.319Z,94344.47
2023-03-08T19:24:15.093Z,94348.16
2023-03-08T19:26:47.248Z,94348.97
2023-03-08T19:29:16.924Z,94353.22
2023-03-08T19:31:57.438Z,94361.13
2023-03-08T19:34:26.112Z,94354.25
2023-03-08T19:36:55.507Z,94354.25
2023-03-08T19:39:27.308Z,94359.53
2023-03-08T19:41:55.789Z,94343.69
2023-03-08T19:44:22.805Z,94351.59
2023-03-08T19:46:52.672Z,94354.25
2023-03-08T19:49:23.082Z,94359.53
2023-03-08T19:51:52.975Z,94359.53
2023-03-08T19:54:19.816Z,94362.19
2023-03-08T19:56:48.746Z,94359.53
2023-03-08T19:59:20.197Z,94366.44
2023-03-08T20:01:51.570Z,94366.44
2023-03-08T20:04:20.348Z,94364.81
2023-03-08T20:06:48.308Z,94373.53
2023-03-08T20:09:21.822Z,94369.06
2023-03-08T20:11:56.479Z,94366.66
2023-03-08T20:14:27.211Z,94382.28
2023-03-08T20:16:54.421Z,94387.00
2023-03-08T20:19:21.193Z,94380.69
2023-03-08T20:21:48.435Z,94390.44
2023-03-08T20:24:18.207Z,94389.38
2023-03-08T20:26:45.042Z,94393.63
2023-03-08T20:29:11.787Z,94386.75
2023-03-08T20:31:40.598Z,94384.91
2023-03-08T20:34:07.369Z,94399.75
2023-03-08T20:36:34.160Z,94392.84
2023-03-08T20:39:00.995Z,94387.56
2023-03-08T20:41:27.891Z,94380.06
2023-03-08T20:43:57.454Z,94386.75
2023-03-08T20:46:26.154Z,94380.69
2023-03-08T20:48:52.909Z,94388.59
2023-03-08T20:51:24.345Z,94382.28
2023-03-08T20:53:52.314Z,94381.72
2023-03-08T20:56:23.421Z,94377.44
2023-03-08T20:58:50.122Z,94380.69
2023-03-08T21:01:20.706Z,94381.47
2023-03-08T21:03:47.808Z,94377.00
2023-03-08T21:06:16.188Z,94371.13
2023-03-08T21:08:43.209Z,94375.38
2023-03-08T21:11:09.947Z,94375.38
2023-03-08T21:13:41.269Z,94381.47
2023-03-08T21:16:11.039Z,94381.72
2023-03-08T21:18:37.674Z,94385.97
2023-03-08T21:21:07.497Z,94378.03
2023-03-08T21:23:34.144Z,94377.22
2023-03-08T21:26:01.149Z,94380.69
2023-03-08T21:28:27.968Z,94373.78
2023-03-08T21:30:57.152Z,94373.78
2023-03-08T21:33:26.478Z,94382.28
2023-03-08T21:35:53.238Z,94375.38
2023-03-08T21:38:20.196Z,94373.78
2023-03-08T21:40:49.503Z,94371.94
2023-03-08T21:43:16.127Z,94376.19
2023-03-08T21:45:42.917Z,94363.22
2023-03-08T21:48:09.604Z,94363.44
2023-03-08T21:50:41.929Z,94364.81
2023-03-08T21:53:10.860Z,94353.66
2023-03-08T21:55:43.310Z,94359.75
2023-03-08T21:58:13.029Z,94364.81
2023-03-08T22:00:42.533Z,94363.22
2023-03-08T22:03:11.340Z,94363.22
2023-03-08T22:05:40.327Z,94363.22
2023-03-08T22:08:07.008Z,94363.22
2023-03-08T22:10:33.697Z,94356.28
2023-03-08T22:13:00.440Z,94362.41
2023-03-08T22:15:27.207Z,94371.13
2023-03-08T22:17:56.125Z,94370.09
2023-03-08T22:20:27.577Z,94358.94
2023-03-08T22:22:56.393Z,94354.25
2023-03-08T22:25:25.213Z,94355.28
2023-03-08T22:27:51.812Z,94350.22
2023-03-08T22:30:18.562Z,94359.53
2023-03-08T22:32:45.399Z,94366.44
2023-03-08T22:35:14.497Z,94361.13
2023-03-08T22:37:43.934Z,94365.59
2023-03-08T22:40:13.352Z,94366.44
2023-03-08T22:42:42.702Z,94362.97
2023-03-08T22:45:12.151Z,94360.31
2023-03-08T22:47:41.262Z,94362.19
2023-03-08T22:50:10.583Z,94362.97
2023-03-08T22:52:37.360Z,94357.69
2023-03-08T22:55:04.592Z,94350.56
2023-03-08T22:57:31.480Z,94357.47
2023-03-08T22:59:58.414Z,94352.97
2023-03-08T23:02:25.235Z,94359.06
2023-03-08T23:04:51.993Z,94357.47
2023-03-08T23:07:18.818Z,94348.50
2023-03-08T23:09:45.472Z,94349.28
2023-03-08T23:12:17.938Z,94352.19
2023-03-08T23:14:46.949Z,94364.34
2023-03-08T23:17:13.649Z,94353.78
2023-03-08T23:19:45.207Z,94343.22
2023-03-08T23:22:14.470Z,94352.19
2023-03-08T23:24:43.506Z,94348.50
2023-03-08T23:27:10.394Z,94345.03
2023-03-08T23:29:37.341Z,94361.72
2023-03-08T23:32:07.245Z,94354.56
2023-03-08T23:34:39.497Z,94357.00
2023-03-08T23:37:09.403Z,94352.53
2023-03-08T23:39:36.143Z,94357.81
2023-03-08T23:42:07.029Z,94357.81
2023-03-08T23:44:34.067Z,94355.16
2023-03-08T23:47:03.125Z,94358.59
2023-03-08T23:49:29.907Z,94358.59
2023-03-08T23:51:56.657Z,94358.59
2023-03-08T23:54:23.550Z,94351.25
2023-03-08T23:56:52.910Z,94358.38
2023-03-08T23:59:22.148Z,94359.16
